Terminal Aerodrome Forecast
Issued by NWS Melbourne, FL

Current Version | Previous Version | Text Only | Print | Product List | Glossary On
Versions: 1 2 3 4 5 6 7 8 9 10 11 12 13 14 15 16 17 18 19
000
FTUS42 KMLB 012300
TAFDAB
TAF
KDAB 012330Z 0200/0224 05005KT P6SM SCT030 BKN100
     FM020200 00000KT P6SM FEW030 BKN060
     FM021400 05005KT P6SM SCT060 BKN120
     FM021800 05009KT P6SM SCT120 BKN250=

USA.gov is the U.S. government's official web portal to all federal, state and local government web resources and services.